CST,Max TemperatureF,Mean TemperatureF,Min TemperatureF,Max Dew PointF,MeanDew PointF,Min DewpointF,Max Humidity, Mean Humidity, Min Humidity, Max Sea Level PressureIn, Mean Sea Level PressureIn, Min Sea Level PressureIn, Max VisibilityMiles, Mean VisibilityMiles, Min VisibilityMiles, Max Wind SpeedMPH, Mean Wind SpeedMPH, Max Gust SpeedMPH,PrecipitationIn, CloudCover, Events, WindDirDegrees
2011-11-1,49,39,29,33,26,18,92,63,33,30.37,30.16,29.98,10,10,10,22,10,28,0.00,1,,295
2011-11-2,48,36,23,24,20,18,75,55,34,30.46,30.35,30.16,10,10,10,15,9,21,0.00,2,,217
2011-11-3,54,37,19,22,18,15,84,55,26,30.15,29.95,29.74,10,10,9,15,4,20,0.00,0,,184
2011-11-4,50,34,17,24,20,14,84,59,34,29.77,29.71,29.65,10,10,7,9,3,9,0.00,0,,230
2011-11-5,41,33,24,30,27,23,92,78,64,29.61,29.51,29.43,10,10,5,24,12,31,0.01,3,Snow,12
2011-11-6,33,31,28,30,27,25,92,85,78,29.93,29.59,29.43,10,4,1,26,16,33,0.06,8,Snow,286
2011-11-7,36,26,16,23,20,14,96,76,56,30.20,30.11,29.93,10,10,9,15,6,18,0.00,1,,235
2011-11-8,42,27,11,25,20,13,92,72,51,30.27,30.15,30.06,10,10,10,21,8,25,0.00,0,,244
2011-11-9,39,28,16,24,19,13,84,66,48,30.45,30.39,30.31,10,10,10,18,9,22,0.00,0,,282
2011-11-10,43,27,11,27,22,10,100,77,53,30.35,29.96,29.66,10,10,10,15,7,20,0.00,2,,214
2011-11-11,56,42,27,26,24,19,78,51,24,29.68,29.56,29.38,10,10,10,21,7,26,0.00,0,,228
2011-11-12,53,39,25,30,27,22,89,65,41,29.37,29.32,29.24,10,10,10,20,6,26,0.00,3,,268
2011-11-13,48,38,27,30,26,23,100,69,38,29.35,29.27,29.20,10,10,10,24,9,30,0.00,5,,243
2011-11-14,42,31,19,29,22,16,92,67,41,29.52,29.44,29.36,10,10,8,21,8,24,T,2,Snow,252
2011-11-15,31,24,17,28,22,13,92,78,63,30.06,29.71,29.42,10,6,0,26,15,37,0.10,6,Fog-Snow,277
2011-11-16,25,15,4,14,10,4,92,76,60,30.29,30.22,30.09,10,10,10,15,7,20,0.00,2,,280
2011-11-17,35,18,1,23,14,-1,95,71,46,30.20,29.76,29.55,10,8,0,15,4,22,0.03,5,Fog-Snow,159
2011-11-18,34,17,-1,22,10,-5,88,75,61,30.14,29.84,29.57,10,10,8,25,12,32,0.00,4,,325
2011-11-19,11,5,-1,6,0,-6,87,80,73,30.32,30.16,30.00,10,6,1,17,8,20,0.06,7,Snow,27
2011-11-20,24,12,0,12,6,-1,95,75,55,30.24,30.13,29.96,10,10,9,14,5,18,0.00,3,,182
2011-11-21,38,18,-3,21,12,-4,96,72,48,30.18,30.07,29.94,10,10,8,9,3,13,0.00,2,,189
2011-11-22,42,29,16,29,23,14,92,73,53,29.99,29.90,29.75,10,10,9,13,5,15,0.00,1,,205
2011-11-23,56,41,26,32,28,24,92,67,41,29.89,29.78,29.65,10,10,10,14,6,17,0.00,1,,196
2011-11-24,55,43,30,32,30,27,100,69,38,29.80,29.70,29.61,10,8,1,17,6,21,0.00,2,,290
2011-11-25,42,36,29,33,30,27,100,82,64,30.05,29.76,29.64,10,7,1,29,7,36,0.00,6,,26
2011-11-26,38,26,14,27,15,9,88,60,32,30.50,30.39,30.11,10,10,10,30,12,40,0.00,0,,295
2011-11-27,51,34,16,24,19,13,84,60,36,30.38,30.09,29.80,10,10,10,12,6,15,0.00,0,,201
2011-11-28,53,35,16,31,23,13,92,61,29,30.44,30.19,29.78,10,10,10,26,11,35,0.00,1,,303
2011-11-29,42,28,14,29,23,12,92,73,53,30.36,30.17,30.00,10,10,10,14,5,18,0.00,3,,209
2011-11-30,34,29,23,31,28,18,92,87,81,30.57,30.07,29.90,10,5,0,18,9,23,0.13,8,Fog-Snow,30